Time;durP1;ratioP1;P1;durP2;ratioP2;P2;SDS_P1;SDS_P2;PMS_P1;PMS_P2;Temp;Humidity;BMP_temperature;BMP_pressure;BME280_temperature;BME280_humidity;BME280_pressure;Samples;Min_cycle;Max_cycle;Signal;HPM_P1;HPM_P2
2024/01/15 00:00:26;;;;;;;13.57;7.77;;;;;;;;;;4993527;28;20235;-79
2024/01/15 00:02:53;;;;;;;8.30;6.77;;;;;;;;;;4994138;28;20208;-79
2024/01/15 00:05:20;;;;;;;12.40;7.60;;;;;;;;;;4993630;28;20216;-78
2024/01/15 00:07:47;;;;;;;39.87;10.43;;;;;;;;;;4993790;28;20222;-78
2024/01/15 00:10:14;;;;;;;13.93;7.20;;;;;;;;;;4992908;28;20247;-79
2024/01/15 00:12:41;;;;;;;14.33;7.87;;;;;;;;;;4993756;28;20212;-78
2024/01/15 00:15:08;;;;;;;16.73;8.63;;;;;;;;;;4993047;28;20234;-79
2024/01/15 00:17:37;;;;;;;17.53;9.50;;;;;;;;;;4993470;28;20671;-78
2024/01/15 00:20:04;;;;;;;22.77;11.93;;;;;;;;;;4993247;28;20236;-79
2024/01/15 00:22:31;;;;;;;21.63;9.67;;;;;;;;;;4995225;28;20208;-79
2024/01/15 00:24:59;;;;;;;19.67;10.57;;;;;;;;;;4993824;28;20212;-78
2024/01/15 00:27:26;;;;;;;10.33;7.00;;;;;;;;;;4992923;28;20231;-78
2024/01/15 00:29:54;;;;;;;10.40;7.80;;;;;;;;;;4993773;28;20602;-78
2024/01/15 00:32:21;;;;;;;12.70;8.77;;;;;;;;;;4993171;28;20232;-79
2024/01/15 00:34:50;;;;;;;15.90;9.77;;;;;;;;;;4997478;28;20234;-78
2024/01/15 00:37:17;;;;;;;17.90;9.20;;;;;;;;;;4993411;28;20258;-78
2024/01/15 00:39:44;;;;;;;24.27;11.63;;;;;;;;;;4994947;28;20221;-78
2024/01/15 00:42:11;;;;;;;13.83;6.87;;;;;;;;;;4992801;28;20246;-79
2024/01/15 00:44:38;;;;;;;13.33;8.20;;;;;;;;;;4993234;28;20570;-79
2024/01/15 00:47:05;;;;;;;15.20;7.43;;;;;;;;;;4992430;28;20236;-78
2024/01/15 00:49:32;;;;;;;10.50;6.43;;;;;;;;;;4992801;28;20745;-79
2024/01/15 00:52:01;;;;;;;16.90;9.27;;;;;;;;;;4992627;28;20248;-79
2024/01/15 00:54:28;;;;;;;25.83;10.70;;;;;;;;;;4992949;28;20216;-79
2024/01/15 00:56:55;;;;;;;22.17;11.93;;;;;;;;;;4992206;28;20757;-79
2024/01/15 00:59:22;;;;;;;15.87;8.90;;;;;;;;;;4993053;28;20208;-79
2024/01/15 01:01:49;;;;;;;13.37;8.13;;;;;;;;;;4992239;28;20242;-79
2024/01/15 01:04:16;;;;;;;12.53;7.27;;;;;;;;;;4992785;28;20204;-79
2024/01/15 01:06:44;;;;;;;17.07;9.80;;;;;;;;;;4992256;28;20243;-79
2024/01/15 01:09:12;;;;;;;22.37;10.20;;;;;;;;;;4992982;28;20208;-78
2024/01/15 01:11:38;;;;;;;20.13;9.80;;;;;;;;;;4992090;28;20689;-79
2024/01/15 01:14:05;;;;;;;22.03;9.00;;;;;;;;;;4992658;28;20230;-78
2024/01/15 01:16:38;;;;;;;15.87;9.13;;;;;;;;;;4992082;28;20243;-78
2024/01/15 01:19:05;;;;;;;6.60;5.50;;;;;;;;;;4992660;28;20250;-79
2024/01/15 01:21:32;;;;;;;16.07;9.50;;;;;;;;;;4991337;28;20243;-78
2024/01/15 01:23:59;;;;;;;24.13;11.83;;;;;;;;;;4992518;28;20243;-79
2024/01/15 01:26:27;;;;;;;16.87;9.77;;;;;;;;;;4991885;28;20262;-79
2024/01/15 01:28:54;;;;;;;14.73;8.70;;;;;;;;;;4992535;28;20211;-79
2024/01/15 01:31:21;;;;;;;12.37;7.10;;;;;;;;;;4991907;28;20239;-78
2024/01/15 01:33:48;;;;;;;12.37;7.73;;;;;;;;;;4992403;28;20262;-79
2024/01/15 01:36:16;;;;;;;20.10;10.40;;;;;;;;;;4991914;28;20703;-78
2024/01/15 01:38:43;;;;;;;10.33;5.77;;;;;;;;;;4992175;28;20291;-78
2024/01/15 01:41:10;;;;;;;15.53;8.83;;;;;;;;;;4991787;28;20247;-79
2024/01/15 01:43:38;;;;;;;7.97;5.83;;;;;;;;;;4992599;28;20214;-79
2024/01/15 01:46:07;;;;;;;20.27;10.50;;;;;;;;;;4992089;28;20244;-79
2024/01/15 01:48:34;;;;;;;16.50;8.97;;;;;;;;;;4991961;28;20205;-79
2024/01/15 01:51:03;;;;;;;15.07;7.83;;;;;;;;;;4991887;28;20244;-78
2024/01/15 01:53:30;;;;;;;8.07;5.43;;;;;;;;;;4992230;28;20212;-79
2024/01/15 01:55:58;;;;;;;10.83;7.90;;;;;;;;;;4991898;28;20271;-79
2024/01/15 01:58:27;;;;;;;17.57;9.90;;;;;;;;;;4991982;28;20196;-78
2024/01/15 02:00:55;;;;;;;16.20;9.43;;;;;;;;;;4991927;28;20247;-79
2024/01/15 02:03:22;;;;;;;13.57;7.53;;;;;;;;;;4992060;28;20203;-79
2024/01/15 02:05:50;;;;;;;12.90;8.23;;;;;;;;;;4991696;28;20244;-79
2024/01/15 02:08:17;;;;;;;17.33;8.93;;;;;;;;;;4988092;28;20663;-77
2024/01/15 02:10:44;;;;;;;12.30;7.73;;;;;;;;;;4997169;28;20259;-79
2024/01/15 02:13:11;;;;;;;19.93;10.23;;;;;;;;;;5011292;28;20202;-78
2024/01/15 02:15:38;;;;;;;10.00;6.67;;;;;;;;;;4991537;28;20236;-80
2024/01/15 02:18:08;;;;;;;13.77;7.60;;;;;;;;;;4991991;28;20208;-78
2024/01/15 02:20:35;;;;;;;23.67;12.37;;;;;;;;;;4991819;28;20270;-78
2024/01/15 02:23:07;;;;;;;9.43;6.20;;;;;;;;;;4991998;28;20227;-78
2024/01/15 02:25:34;;;;;;;10.77;7.27;;;;;;;;;;4991463;28;20725;-78
2024/01/15 02:28:01;;;;;;;19.13;10.30;;;;;;;;;;4991926;28;20205;-78
2024/01/15 02:30:29;;;;;;;13.70;6.93;;;;;;;;;;4991405;28;20243;-78
2024/01/15 02:32:56;;;;;;;20.87;8.43;;;;;;;;;;4994564;28;20208;-78
2024/01/15 02:35:23;;;;;;;14.00;8.80;;;;;;;;;;4995154;28;20247;-78
2024/01/15 02:37:50;;;;;;;13.90;8.53;;;;;;;;;;4995525;28;20212;-78
2024/01/15 02:40:18;;;;;;;17.03;7.57;;;;;;;;;;4994890;28;20718;-78
2024/01/15 02:42:45;;;;;;;10.93;7.37;;;;;;;;;;4995389;28;20215;-78
2024/01/15 02:45:12;;;;;;;19.73;10.23;;;;;;;;;;4995090;28;20216;-78
2024/01/15 02:47:39;;;;;;;22.93;9.23;;;;;;;;;;4995120;28;20641;-78
2024/01/15 02:50:07;;;;;;;10.67;7.40;;;;;;;;;;4994867;28;20232;-78
2024/01/15 02:52:34;;;;;;;22.43;12.07;;;;;;;;;;4995044;28;20693;-78
2024/01/15 02:55:01;;;;;;;11.17;6.63;;;;;;;;;;4995040;28;20794;-78
2024/01/15 02:57:29;;;;;;;14.03;8.43;;;;;;;;;;5014384;28;20619;-78
2024/01/15 02:59:56;;;;;;;9.60;6.50;;;;;;;;;;5014565;28;20219;-78
2024/01/15 03:02:23;;;;;;;12.90;8.63;;;;;;;;;;5014141;28;20231;-78
2024/01/15 03:04:50;;;;;;;14.27;7.53;;;;;;;;;;5014841;28;20223;-78
2024/01/15 03:07:17;;;;;;;18.37;9.90;;;;;;;;;;5013847;28;20246;-77
2024/01/15 03:09:44;;;;;;;18.87;8.53;;;;;;;;;;5014608;28;20227;-78
2024/01/15 03:12:11;;;;;;;16.70;8.70;;;;;;;;;;5013825;28;20239;-78
2024/01/15 03:14:40;;;;;;;12.63;7.67;;;;;;;;;;5014365;28;20631;-78
2024/01/15 03:17:09;;;;;;;19.47;9.83;;;;;;;;;;5013663;28;20282;-78
2024/01/15 03:19:36;;;;;;;10.87;8.00;;;;;;;;;;5014158;28;20223;-79
2024/01/15 03:22:03;;;;;;;15.07;7.23;;;;;;;;;;5013768;28;20239;-79
2024/01/15 03:24:30;;;;;;;16.83;10.03;;;;;;;;;;5014492;28;20215;-77
2024/01/15 03:26:57;;;;;;;22.90;11.63;;;;;;;;;;5013573;28;20231;-77
2024/01/15 03:29:24;;;;;;;18.00;8.63;;;;;;;;;;5013897;28;20746;-77
2024/01/15 03:31:53;;;;;;;14.43;8.37;;;;;;;;;;5013517;28;20286;-76
2024/01/15 03:34:20;;;;;;;14.43;8.80;;;;;;;;;;5013843;28;20203;-77
2024/01/15 03:36:47;;;;;;;13.53;8.60;;;;;;;;;;5013123;28;20610;-77
2024/01/15 03:39:14;;;;;;;13.20;7.37;;;;;;;;;;5013645;28;20208;-77
2024/01/15 03:41:41;;;;;;;12.90;7.60;;;;;;;;;;5013334;28;20239;-77
2024/01/15 03:44:08;;;;;;;17.47;9.17;;;;;;;;;;5013430;28;20219;-77
2024/01/15 03:46:35;;;;;;;15.53;9.43;;;;;;;;;;5013213;28;20235;-77
2024/01/15 03:49:03;;;;;;;13.37;7.83;;;;;;;;;;5014135;28;20204;-77
2024/01/15 03:51:30;;;;;;;19.57;10.10;;;;;;;;;;5014762;28;20246;-77
2024/01/15 03:53:57;;;;;;;11.13;6.63;;;;;;;;;;5013929;28;20258;-77
2024/01/15 03:56:24;;;;;;;13.23;7.90;;;;;;;;;;5013331;28;20239;-76
2024/01/15 03:58:51;;;;;;;11.67;6.73;;;;;;;;;;5013585;28;20206;-77
2024/01/15 04:01:18;;;;;;;10.53;6.57;;;;;;;;;;5012909;28;20239;-77
2024/01/15 04:03:45;;;;;;;12.43;8.20;;;;;;;;;;5013241;28;20204;-76
2024/01/15 04:06:14;;;;;;;17.43;7.80;;;;;;;;;;5012798;28;20705;-77
2024/01/15 04:08:41;;;;;;;15.00;8.27;;;;;;;;;;5013211;28;20556;-76
2024/01/15 04:11:08;;;;;;;19.53;9.57;;;;;;;;;;5012943;28;20239;-77
2024/01/15 04:13:35;;;;;;;6.47;4.67;;;;;;;;;;5013248;28;20207;-77
2024/01/15 04:16:03;;;;;;;13.97;8.50;;;;;;;;;;5012734;28;20243;-77
2024/01/15 04:18:30;;;;;;;15.53;9.90;;;;;;;;;;5012870;28;20686;-77
2024/01/15 04:20:57;;;;;;;10.23;5.83;;;;;;;;;;5009585;28;20247;-77
2024/01/15 04:23:25;;;;;;;12.10;6.57;;;;;;;;;;5021239;28;20200;-77
2024/01/15 04:25:52;;;;;;;15.93;9.20;;;;;;;;;;5012695;28;20235;-77
2024/01/15 04:28:19;;;;;;;16.40;9.17;;;;;;;;;;5012869;28;20215;-77
2024/01/15 04:30:46;;;;;;;15.20;8.27;;;;;;;;;;5012396;28;20239;-77
2024/01/15 04:33:13;;;;;;;20.33;9.97;;;;;;;;;;5013122;28;20215;-76
2024/01/15 04:35:40;;;;;;;20.33;9.23;;;;;;;;;;5012038;28;20235;-77
2024/01/15 04:38:07;;;;;;;12.70;7.50;;;;;;;;;;5012510;28;20306;-77
2024/01/15 04:40:36;;;;;;;16.03;8.30;;;;;;;;;;5011683;28;20243;-77
2024/01/15 04:43:03;;;;;;;17.17;9.50;;;;;;;;;;5012864;28;20226;-77
2024/01/15 04:45:30;;;;;;;15.53;8.37;;;;;;;;;;5011181;28;20226;-78
2024/01/15 04:47:57;;;;;;;12.50;8.07;;;;;;;;;;5012363;28;20214;-77
2024/01/15 04:50:24;;;;;;;17.77;7.20;;;;;;;;;;5012076;28;20235;-78
2024/01/15 04:52:52;;;;;;;15.80;7.43;;;;;;;;;;5012580;28;20207;-77
2024/01/15 04:55:19;;;;;;;14.53;8.23;;;;;;;;;;5011401;28;20204;-77
2024/01/15 04:57:47;;;;;;;15.67;8.17;;;;;;;;;;5012060;28;20227;-77
2024/01/15 05:00:14;;;;;;;18.37;8.40;;;;;;;;;;5012068;28;20227;-77
2024/01/15 05:02:41;;;;;;;17.53;8.00;;;;;;;;;;5012704;28;20211;-77
2024/01/15 05:05:09;;;;;;;15.07;8.90;;;;;;;;;;5011879;28;20203;-77
2024/01/15 05:07:36;;;;;;;16.77;8.87;;;;;;;;;;5012016;28;20203;-77
2024/01/15 05:10:03;;;;;;;9.23;6.07;;;;;;;;;;5012239;28;20227;-81
2024/01/15 05:12:30;;;;;;;12.77;8.50;;;;;;;;;;5011989;28;20670;-77
2024/01/15 05:14:58;;;;;;;17.43;9.07;;;;;;;;;;5012367;28;20207;-77
2024/01/15 05:17:25;;;;;;;7.17;6.03;;;;;;;;;;5011377;28;20707;-77
2024/01/15 05:19:52;;;;;;;12.33;7.80;;;;;;;;;;5012216;28;20219;-77
2024/01/15 05:22:21;;;;;;;8.73;6.93;;;;;;;;;;5011643;28;20262;-78
2024/01/15 05:24:48;;;;;;;17.20;8.07;;;;;;;;;;5012278;28;20235;-77
2024/01/15 05:27:15;;;;;;;16.57;8.80;;;;;;;;;;5011343;28;20230;-77
2024/01/15 05:29:42;;;;;;;12.70;7.40;;;;;;;;;;5012202;28;20227;-77
2024/01/15 05:32:11;;;;;;;14.77;8.93;;;;;;;;;;5011682;28;20238;-77
2024/01/15 05:34:38;;;;;;;14.07;8.43;;;;;;;;;;5011893;28;20207;-77
2024/01/15 05:37:05;;;;;;;14.50;8.17;;;;;;;;;;5011416;28;20242;-77
2024/01/15 05:39:32;;;;;;;12.03;8.33;;;;;;;;;;5011875;28;20231;-78
2024/01/15 05:42:00;;;;;;;14.60;7.50;;;;;;;;;;5011427;28;20244;-77
2024/01/15 05:44:27;;;;;;;14.70;7.73;;;;;;;;;;5012002;28;20286;-76
2024/01/15 05:46:54;;;;;;;16.47;8.93;;;;;;;;;;5011083;28;20231;-77
2024/01/15 05:49:24;;;;;;;16.67;9.37;;;;;;;;;;5011523;28;20691;-77
2024/01/15 05:51:51;;;;;;;11.70;7.17;;;;;;;;;;5011304;28;20243;-77
2024/01/15 05:54:19;;;;;;;16.63;9.43;;;;;;;;;;5011888;28;20689;-77
2024/01/15 05:56:47;;;;;;;4.27;3.90;;;;;;;;;;5011086;28;20259;-77
2024/01/15 05:59:14;;;;;;;20.53;9.87;;;;;;;;;;5011574;28;20751;-78
2024/01/15 06:01:41;;;;;;;9.77;6.50;;;;;;;;;;5011180;28;20242;-78
2024/01/15 06:04:08;;;;;;;15.03;7.47;;;;;;;;;;5011537;28;20696;-78
2024/01/15 06:06:36;;;;;;;11.03;7.03;;;;;;;;;;5011268;28;20238;-78
2024/01/15 06:09:05;;;;;;;17.70;9.30;;;;;;;;;;5015607;28;20265;-78
2024/01/15 06:11:32;;;;;;;8.37;5.50;;;;;;;;;;5014879;28;20247;-77
2024/01/15 06:14:00;;;;;;;13.03;7.50;;;;;;;;;;5015292;28;20208;-78
2024/01/15 06:16:27;;;;;;;12.03;7.30;;;;;;;;;;5014713;28;20333;-77
2024/01/15 06:18:54;;;;;;;13.97;6.87;;;;;;;;;;5015062;28;20670;-78
2024/01/15 06:21:21;;;;;;;9.87;6.77;;;;;;;;;;5014637;28;20243;-78
2024/01/15 06:23:50;;;;;;;13.13;7.47;;;;;;;;;;5015285;28;20212;-77
2024/01/15 06:26:17;;;;;;;11.13;6.53;;;;;;;;;;5014850;28;20285;-77
2024/01/15 06:28:44;;;;;;;4.97;4.57;;;;;;;;;;5014822;28;20216;-77
2024/01/15 06:31:11;;;;;;;13.17;7.27;;;;;;;;;;5014555;28;20247;-78
2024/01/15 06:33:38;;;;;;;9.80;5.83;;;;;;;;;;5015003;28;20270;-77
2024/01/15 06:36:06;;;;;;;14.03;8.97;;;;;;;;;;5014414;28;20296;-77
2024/01/15 06:38:33;;;;;;;14.63;8.97;;;;;;;;;;5014546;28;20326;-77
2024/01/15 06:41:01;;;;;;;8.43;5.37;;;;;;;;;;5014374;28;20240;-77
2024/01/15 06:43:28;;;;;;;9.30;6.33;;;;;;;;;;5014759;28;20204;-77
2024/01/15 06:45:55;;;;;;;11.83;7.43;;;;;;;;;;5014208;28;20239;-77
2024/01/15 06:48:22;;;;;;;19.17;9.93;;;;;;;;;;5014624;28;20205;-77
2024/01/15 06:50:50;;;;;;;15.23;7.60;;;;;;;;;;5014294;28;20243;-78
2024/01/15 06:53:17;;;;;;;17.80;8.13;;;;;;;;;;5014889;28;20214;-78
2024/01/15 06:55:44;;;;;;;7.17;5.17;;;;;;;;;;5014132;28;20266;-77
2024/01/15 06:58:12;;;;;;;12.33;7.20;;;;;;;;;;5014367;28;20238;-77
2024/01/15 07:00:47;;;;;;;10.60;5.77;;;;;;;;;;5013887;28;20247;-77
2024/01/15 07:03:14;;;;;;;12.23;6.23;;;;;;;;;;5014387;28;20211;-77
2024/01/15 07:05:41;;;;;;;9.07;6.63;;;;;;;;;;5014102;28;20328;-76
2024/01/15 07:08:08;;;;;;;10.57;7.73;;;;;;;;;;5014126;28;20200;-77
2024/01/15 07:10:35;;;;;;;8.33;5.37;;;;;;;;;;5013923;28;20240;-77
2024/01/15 07:13:02;;;;;;;9.90;5.63;;;;;;;;;;5014152;28;20703;-76
2024/01/15 07:15:30;;;;;;;15.93;9.17;;;;;;;;;;5013810;28;20301;-77
2024/01/15 07:17:57;;;;;;;11.63;7.77;;;;;;;;;;5013266;28;20988;-77
2024/01/15 07:20:24;;;;;;;11.27;7.83;;;;;;;;;;5013045;28;20293;-77
2024/01/15 07:22:52;;;;;;;9.60;6.33;;;;;;;;;;5013852;28;20215;-77
2024/01/15 07:25:19;;;;;;;5.30;4.47;;;;;;;;;;5013610;28;20304;-77
2024/01/15 07:27:46;;;;;;;11.60;8.23;;;;;;;;;;5013896;28;20273;-77
2024/01/15 07:30:14;;;;;;;11.20;5.77;;;;;;;;;;5013545;28;20227;-77
2024/01/15 07:32:42;;;;;;;13.23;7.90;;;;;;;;;;5013765;28;20211;-77
2024/01/15 07:35:10;;;;;;;5.90;5.23;;;;;;;;;;5013583;28;20266;-78
2024/01/15 07:37:37;;;;;;;9.67;6.83;;;;;;;;;;5013629;28;20334;-77
2024/01/15 07:40:05;;;;;;;14.70;8.33;;;;;;;;;;5013193;28;20295;-78
2024/01/15 07:42:32;;;;;;;13.30;7.27;;;;;;;;;;5013387;28;20661;-77
2024/01/15 07:44:59;;;;;;;10.07;5.07;;;;;;;;;;5013833;28;20261;-76
2024/01/15 07:47:26;;;;;;;16.20;7.83;;;;;;;;;;5012780;28;20748;-77
2024/01/15 07:49:55;;;;;;;14.33;8.10;;;;;;;;;;5013078;28;20234;-77
2024/01/15 07:52:22;;;;;;;15.87;9.13;;;;;;;;;;5013100;28;20243;-77
2024/01/15 07:54:49;;;;;;;12.13;6.87;;;;;;;;;;5013553;28;20576;-77
2024/01/15 07:57:16;;;;;;;11.20;6.27;;;;;;;;;;5012644;28;20710;-77
2024/01/15 07:59:43;;;;;;;5.30;4.73;;;;;;;;;;5013171;28;20235;-76
2024/01/15 08:02:11;;;;;;;7.03;6.17;;;;;;;;;;5012544;28;20241;-77
2024/01/15 08:04:38;;;;;;;8.33;5.47;;;;;;;;;;5013472;28;20568;-77
2024/01/15 08:07:06;;;;;;;14.40;8.63;;;;;;;;;;4995989;28;20706;-76
2024/01/15 08:09:33;;;;;;;4.47;2.83;;;;;;;;;;4993450;28;20711;-76
2024/01/15 08:12:00;;;;;;;10.03;6.77;;;;;;;;;;4992985;28;20282;-76
2024/01/15 08:14:28;;;;;;;6.67;6.03;;;;;;;;;;4993630;28;20208;-77
2024/01/15 08:16:55;;;;;;;8.20;6.43;;;;;;;;;;4992707;28;20236;-77
2024/01/15 08:19:22;;;;;;;14.73;8.63;;;;;;;;;;4993138;28;20208;-77
2024/01/15 08:21:49;;;;;;;11.00;7.60;;;;;;;;;;4992870;28;20236;-77
2024/01/15 08:24:17;;;;;;;8.07;5.47;;;;;;;;;;4993195;28;20200;-77
2024/01/15 08:26:45;;;;;;;7.20;5.90;;;;;;;;;;4992450;28;20270;-77
2024/01/15 08:29:12;;;;;;;12.00;5.80;;;;;;;;;;4992952;28;20200;-77
2024/01/15 08:31:39;;;;;;;11.30;7.47;;;;;;;;;;4992279;28;20699;-77
2024/01/15 08:34:06;;;;;;;12.27;6.60;;;;;;;;;;4992853;28;20203;-77
2024/01/15 08:36:35;;;;;;;14.80;9.67;;;;;;;;;;4992528;28;20302;-77
2024/01/15 08:39:03;;;;;;;8.77;4.80;;;;;;;;;;4992613;28;20315;-77
2024/01/15 08:41:32;;;;;;;19.77;9.57;;;;;;;;;;4992310;28;20247;-77
2024/01/15 08:43:59;;;;;;;19.80;10.80;;;;;;;;;;4992795;28;20327;-78
2024/01/15 08:46:26;;;;;;;13.93;8.37;;;;;;;;;;4992207;28;20286;-77
2024/01/15 08:48:53;;;;;;;16.50;9.10;;;;;;;;;;4992604;28;20219;-77
2024/01/15 08:51:20;;;;;;;10.07;6.00;;;;;;;;;;4992206;28;20608;-77
2024/01/15 08:53:47;;;;;;;15.87;7.57;;;;;;;;;;4992789;28;20208;-77
2024/01/15 08:56:14;;;;;;;11.53;5.60;;;;;;;;;;4992295;28;20240;-78
2024/01/15 08:58:42;;;;;;;15.63;8.23;;;;;;;;;;4992546;28;20598;-77
2024/01/15 09:01:09;;;;;;;11.70;7.57;;;;;;;;;;4992044;28;20245;-77
2024/01/15 09:03:36;;;;;;;16.40;8.27;;;;;;;;;;4992587;28;20219;-77
2024/01/15 09:06:04;;;;;;;10.20;5.90;;;;;;;;;;4992204;28;20232;-77
2024/01/15 09:08:31;;;;;;;11.90;6.23;;;;;;;;;;4992452;28;20260;-77
2024/01/15 09:10:58;;;;;;;22.10;9.10;;;;;;;;;;4991850;28;20248;-77
2024/01/15 09:13:25;;;;;;;5.90;5.37;;;;;;;;;;4992630;28;20681;-77
2024/01/15 09:15:53;;;;;;;15.30;8.97;;;;;;;;;;4992090;28;20265;-77
2024/01/15 09:18:20;;;;;;;6.40;5.80;;;;;;;;;;4992243;28;20231;-77
2024/01/15 09:20:47;;;;;;;11.93;8.53;;;;;;;;;;4992014;28;20254;-76
2024/01/15 09:23:14;;;;;;;15.30;9.43;;;;;;;;;;4992192;28;20551;-77
2024/01/15 09:25:41;;;;;;;13.03;8.23;;;;;;;;;;4991784;28;20232;-77
2024/01/15 09:28:08;;;;;;;9.90;7.37;;;;;;;;;;4991969;28;20204;-77
2024/01/15 09:30:36;;;;;;;8.73;6.33;;;;;;;;;;4991783;28;20268;-77
2024/01/15 09:33:05;;;;;;;12.37;8.00;;;;;;;;;;4992119;28;20209;-77
2024/01/15 09:35:32;;;;;;;9.70;6.20;;;;;;;;;;4991891;28;20231;-77
2024/01/15 09:37:59;;;;;;;16.53;8.63;;;;;;;;;;4991751;28;20419;-77
2024/01/15 09:40:32;;;;;;;13.33;8.00;;;;;;;;;;4991369;28;20610;-78
2024/01/15 09:43:00;;;;;;;12.63;8.17;;;;;;;;;;4991342;28;20730;-78
2024/01/15 09:45:27;;;;;;;8.63;5.27;;;;;;;;;;4991887;28;20234;-77
2024/01/15 09:47:54;;;;;;;17.53;9.10;;;;;;;;;;4991733;28;20212;-77
2024/01/15 09:50:22;;;;;;;9.07;6.77;;;;;;;;;;4991360;28;20644;-78
2024/01/15 09:52:50;;;;;;;15.10;7.53;;;;;;;;;;4991835;28;20206;-78
2024/01/15 09:55:19;;;;;;;7.20;6.23;;;;;;;;;;4991332;28;20220;-78
2024/01/15 09:57:47;;;;;;;6.73;4.83;;;;;;;;;;4991470;28;20229;-77
2024/01/15 10:00:14;;;;;;;13.27;8.57;;;;;;;;;;4991453;28;20229;-78
2024/01/15 10:02:41;;;;;;;4.87;4.47;;;;;;;;;;4991966;28;20202;-78
2024/01/15 10:05:09;;;;;;;7.53;6.13;;;;;;;;;;4991671;28;20212;-78
2024/01/15 10:07:38;;;;;;;12.53;7.80;;;;;;;;;;4991837;28;20202;-77
2024/01/15 10:10:05;;;;;;;14.40;8.17;;;;;;;;;;4991371;28;20232;-78
2024/01/15 10:12:32;;;;;;;10.77;7.00;;;;;;;;;;4991921;28;20232;-78
2024/01/15 10:14:59;;;;;;;13.60;7.43;;;;;;;;;;4991933;28;20214;-77
2024/01/15 10:17:27;;;;;;;11.80;7.60;;;;;;;;;;4991227;28;20250;-77
2024/01/15 10:19:54;;;;;;;11.47;7.23;;;;;;;;;;4992057;28;20241;-78
2024/01/15 10:22:21;;;;;;;16.83;8.73;;;;;;;;;;4991398;28;20243;-78
2024/01/15 10:24:49;;;;;;;11.37;7.03;;;;;;;;;;4991775;28;20198;-77
2024/01/15 10:27:16;;;;;;;13.13;8.13;;;;;;;;;;4991128;28;20248;-77
2024/01/15 10:29:44;;;;;;;11.00;8.00;;;;;;;;;;4991798;28;20230;-78
2024/01/15 10:32:11;;;;;;;11.50;7.60;;;;;;;;;;4991351;28;20234;-78
2024/01/15 10:34:40;;;;;;;6.83;5.47;;;;;;;;;;4991846;28;20262;-78
2024/01/15 10:37:08;;;;;;;11.43;8.03;;;;;;;;;;4991154;28;20799;-77
2024/01/15 10:39:36;;;;;;;9.80;6.10;;;;;;;;;;4991524;28;20232;-78
2024/01/15 10:42:04;;;;;;;6.80;4.93;;;;;;;;;;4991104;28;20237;-78
2024/01/15 10:44:31;;;;;;;12.73;7.63;;;;;;;;;;4991610;28;20225;-77
2024/01/15 10:46:59;;;;;;;10.20;4.87;;;;;;;;;;4990894;28;20248;-77
2024/01/15 10:49:27;;;;;;;10.13;6.70;;;;;;;;;;4991852;28;20211;-77
2024/01/15 10:51:55;;;;;;;8.43;6.20;;;;;;;;;;4991200;28;20237;-77
2024/01/15 10:54:23;;;;;;;11.23;6.50;;;;;;;;;;4993352;28;20268;-77
2024/01/15 10:56:51;;;;;;;8.63;6.50;;;;;;;;;;4994377;28;20654;-77
2024/01/15 10:59:21;;;;;;;10.53;6.60;;;;;;;;;;4994757;28;20321;-76
2024/01/15 11:01:49;;;;;;;5.20;4.63;;;;;;;;;;4994593;28;20328;-77
2024/01/15 11:04:17;;;;;;;12.27;8.60;;;;;;;;;;4994899;28;20219;-77
2024/01/15 11:06:44;;;;;;;12.40;7.60;;;;;;;;;;4994271;28;20246;-77
2024/01/15 11:09:11;;;;;;;7.03;5.67;;;;;;;;;;4994731;28;20303;-77
2024/01/15 11:11:42;;;;;;;12.27;8.10;;;;;;;;;;4994338;28;20238;-77
2024/01/15 11:14:09;;;;;;;10.83;6.93;;;;;;;;;;4994816;28;20788;-77
2024/01/15 11:16:54;;;;;;;11.67;7.33;;;;;;;;;;4994104;28;20251;-77
2024/01/15 11:19:22;;;;;;;8.17;6.07;;;;;;;;;;4994671;28;20240;-77
2024/01/15 11:21:49;;;;;;;10.47;7.77;;;;;;;;;;4994152;28;20735;-77
2024/01/15 11:24:31;;;;;;;7.13;5.23;;;;;;;;;;4994855;28;20214;-77
2024/01/15 11:26:58;;;;;;;12.73;7.83;;;;;;;;;;4993878;28;20244;-77
2024/01/15 11:29:32;;;;;;;13.63;9.17;;;;;;;;;;4994636;28;20215;-78
2024/01/15 11:32:00;;;;;;;12.60;7.67;;;;;;;;;;4993784;28;20683;-77
2024/01/15 11:34:43;;;;;;;7.83;5.60;;;;;;;;;;4994327;28;20712;-78
2024/01/15 11:37:13;;;;;;;9.63;6.80;;;;;;;;;;4993579;28;20245;-77
2024/01/15 11:39:46;;;;;;;8.70;6.33;;;;;;;;;;4994226;28;20232;-77
2024/01/15 11:42:14;;;;;;;9.20;6.63;;;;;;;;;;4993516;28;20718;-77
2024/01/15 11:44:41;;;;;;;11.47;6.47;;;;;;;;;;4994381;28;20302;-79
2024/01/15 11:47:09;;;;;;;9.43;6.47;;;;;;;;;;4993609;28;20244;-77
2024/01/15 11:49:57;;;;;;;13.63;8.23;;;;;;;;;;4994242;28;20598;-77
2024/01/15 11:52:25;;;;;;;8.80;6.30;;;;;;;;;;4993619;28;20659;-77
2024/01/15 11:54:57;;;;;;;11.87;6.77;;;;;;;;;;4994156;28;20227;-77
2024/01/15 11:57:29;;;;;;;13.47;6.80;;;;;;;;;;4993354;28;20270;-77
2024/01/15 11:59:56;;;;;;;6.87;5.60;;;;;;;;;;4993663;28;20278;-77
2024/01/15 12:02:23;;;;;;;7.83;5.50;;;;;;;;;;4993399;28;20247;-78
2024/01/15 12:04:51;;;;;;;11.10;6.63;;;;;;;;;;4993401;28;20216;-77
2024/01/15 12:07:18;;;;;;;6.50;5.17;;;;;;;;;;4992971;28;20266;-77
2024/01/15 12:09:46;;;;;;;7.90;5.10;;;;;;;;;;4993678;28;20308;-77
2024/01/15 12:12:18;;;;;;;9.90;6.20;;;;;;;;;;4993110;28;20244;-78
2024/01/15 12:14:45;;;;;;;7.70;5.70;;;;;;;;;;4993947;28;20203;-77
2024/01/15 12:17:12;;;;;;;7.43;5.63;;;;;;;;;;4992965;28;20235;-78
2024/01/15 12:19:39;;;;;;;4.23;3.80;;;;;;;;;;4993368;28;20274;-77
2024/01/15 12:22:06;;;;;;;11.43;6.23;;;;;;;;;;4992989;28;20247;-76
2024/01/15 12:24:33;;;;;;;9.47;6.37;;;;;;;;;;4993566;28;20218;-77
2024/01/15 12:27:03;;;;;;;11.70;6.33;;;;;;;;;;4992521;28;20246;-77
2024/01/15 12:29:30;;;;;;;6.67;5.53;;;;;;;;;;4993245;28;20200;-78
2024/01/15 12:31:57;;;;;;;10.23;5.60;;;;;;;;;;4992820;28;20247;-77
2024/01/15 12:34:24;;;;;;;8.27;5.73;;;;;;;;;;4993241;28;20199;-77
2024/01/15 12:36:51;;;;;;;12.97;6.63;;;;;;;;;;4992645;28;20239;-77
2024/01/15 12:39:18;;;;;;;7.23;5.33;;;;;;;;;;4992749;28;20710;-77
2024/01/15 12:41:45;;;;;;;8.57;6.03;;;;;;;;;;4992626;28;20243;-77
2024/01/15 12:44:14;;;;;;;8.60;6.17;;;;;;;;;;4993003;28;20204;-78
2024/01/15 12:46:41;;;;;;;12.43;6.40;;;;;;;;;;4992451;28;20239;-78
2024/01/15 12:49:08;;;;;;;5.03;4.67;;;;;;;;;;4992982;28;20578;-78
2024/01/15 12:51:36;;;;;;;7.90;5.07;;;;;;;;;;4992429;28;20247;-78
2024/01/15 12:54:03;;;;;;;8.87;6.63;;;;;;;;;;4993002;28;20625;-78
2024/01/15 12:56:30;;;;;;;4.13;3.77;;;;;;;;;;4992304;28;20740;-78
2024/01/15 12:58:57;;;;;;;7.80;5.80;;;;;;;;;;4992978;28;20227;-77
2024/01/15 13:01:25;;;;;;;6.27;5.67;;;;;;;;;;4992275;28;20243;-78
2024/01/15 13:03:52;;;;;;;7.57;5.97;;;;;;;;;;4992873;28;20614;-79
2024/01/15 13:06:19;;;;;;;8.97;6.00;;;;;;;;;;4992288;28;20235;-79
2024/01/15 13:08:47;;;;;;;8.83;6.00;;;;;;;;;;4992455;28;20211;-79
2024/01/15 13:11:14;;;;;;;4.40;4.00;;;;;;;;;;4992111;28;20242;-78
2024/01/15 13:13:41;;;;;;;8.10;5.57;;;;;;;;;;4992671;28;20214;-78
2024/01/15 13:16:09;;;;;;;7.73;5.33;;;;;;;;;;4991558;28;20236;-78
2024/01/15 13:18:37;;;;;;;3.83;3.23;;;;;;;;;;4992366;28;20250;-78
2024/01/15 13:21:04;;;;;;;8.80;5.50;;;;;;;;;;4991941;28;20239;-78
2024/01/15 13:23:31;;;;;;;6.17;4.83;;;;;;;;;;4992389;28;20215;-78
2024/01/15 13:25:58;;;;;;;5.30;4.33;;;;;;;;;;4992212;28;20231;-78
2024/01/15 13:28:25;;;;;;;8.57;5.13;;;;;;;;;;4992180;28;20319;-77
2024/01/15 13:30:53;;;;;;;5.70;4.30;;;;;;;;;;4991976;28;20240;-78
2024/01/15 13:33:20;;;;;;;7.90;5.67;;;;;;;;;;4992295;28;20212;-78
2024/01/15 13:35:49;;;;;;;6.97;5.47;;;;;;;;;;4991805;28;20297;-78
2024/01/15 13:38:17;;;;;;;9.43;5.97;;;;;;;;;;4992189;28;20593;-78
2024/01/15 13:40:45;;;;;;;6.53;4.57;;;;;;;;;;4991771;28;20266;-78
2024/01/15 13:43:13;;;;;;;6.17;4.73;;;;;;;;;;4992422;28;20233;-78
2024/01/15 13:45:41;;;;;;;6.93;5.63;;;;;;;;;;4991854;28;20286;-78
2024/01/15 13:48:08;;;;;;;8.60;4.90;;;;;;;;;;4991831;28;20244;-78
2024/01/15 13:50:35;;;;;;;8.23;5.67;;;;;;;;;;4991903;28;20250;-78
2024/01/15 13:53:04;;;;;;;8.07;5.80;;;;;;;;;;4992308;28;20211;-78
2024/01/15 13:55:31;;;;;;;6.73;4.80;;;;;;;;;;4991708;28;20629;-77
2024/01/15 13:57:58;;;;;;;6.90;5.13;;;;;;;;;;4992217;28;20211;-78
2024/01/15 14:00:25;;;;;;;9.07;6.13;;;;;;;;;;4991750;28;20239;-77
2024/01/15 14:02:52;;;;;;;7.73;5.50;;;;;;;;;;4992051;28;20748;-78
2024/01/15 14:05:20;;;;;;;9.93;5.70;;;;;;;;;;4991549;28;20210;-78
2024/01/15 14:07:47;;;;;;;5.00;4.50;;;;;;;;;;4991830;28;20222;-77
2024/01/15 14:10:15;;;;;;;6.50;4.93;;;;;;;;;;4991463;28;20697;-78
2024/01/15 14:12:42;;;;;;;7.37;5.77;;;;;;;;;;4992186;28;20211;-78
2024/01/15 14:15:10;;;;;;;8.37;5.17;;;;;;;;;;4991574;28;20270;-78
2024/01/15 14:17:37;;;;;;;10.23;6.07;;;;;;;;;;4992012;28;20215;-78
2024/01/15 14:20:05;;;;;;;8.10;4.90;;;;;;;;;;4991357;28;20333;-79
2024/01/15 14:22:32;;;;;;;9.67;6.17;;;;;;;;;;4991794;28;20219;-78
2024/01/15 14:24:59;;;;;;;7.03;5.20;;;;;;;;;;4991831;28;20219;-78
2024/01/15 14:27:27;;;;;;;3.47;3.17;;;;;;;;;;4991367;28;20239;-78
2024/01/15 14:29:54;;;;;;;7.53;4.83;;;;;;;;;;4995404;28;20729;-78
2024/01/15 14:32:21;;;;;;;8.63;4.17;;;;;;;;;;4994984;28;20286;-78
2024/01/15 14:34:49;;;;;;;6.07;3.70;;;;;;;;;;4995718;28;20207;-77